Flag Island, MN

6:40 AM CDT on June 27, 2017 (GMT -0500)
Flag Island

Weather History for KFGN - December, 2013

Change the Weather History Date:

Tuesday, December 3, 2013

  Actual Average Record
Temperature  
Mean Temperature 18 °F -  
Max Temperature 21 °F 22 °F 44 °F (2015)
Min Temperature 15 °F 11 °F -11 °F (1996)
Degree Days  
Heating Degree Days 47    
Moisture  
Dew Point 15 °F    
Average Humidity 84    
Maximum Humidity 86    
Minimum Humidity 79    
Precipitation  
Precipitation 0.00 in - - ()
Sea Level Pressure  
Sea Level Pressure 29.93 in    
Wind  
Wind Speed 13 mph (NE)    
Max Wind Speed 18 mph    
Max Gust Speed 23 mph    
Visibility 9 miles    
Events Snow    
Averages and records for this station are not official NWS values.
T = Trace of Precipitation, MM = Missing Value Source: NWS Daily Summary

Daily Weather History Graph

Daily Weather History Graph

Search for Another Location

Airport or City:

Trip Planner

Search our weather history database for the weather conditions in past years. The results will help you decide how hot, cold, wet, or windy it might be!

Date:

Astronomy

Dec. 03, 2013 Rise Set
Actual Time 7:56 AM CST 4:22 PM CST
Civil Twilight 7:19 AM CST 4:59 PM CST
Nautical Twilight 6:39 AM CST 5:39 PM CST
Astronomical Twilight 6:00 AM CST 6:18 PM CST
Moon 8:24 AM CST (12/3) 5:29 PM CST (12/3)
Length of Visible Light 9h 39m
Length of Day
8h 25m
New Moon, 1% of the Moon is Illuminated
Dec 3
New Moon
Dec 9
First Quarter
Dec 17
Full
Dec 25
Last Quarter
Jan 1
New

Hourly Weather History & Observations

Time (CST) Temp. Windchill Dew Point Humidity Pressure Visibility Wind Dir Wind Speed Gust Speed Precip Events Conditions
12:13 AM 19.4 °F 5.5 °F 15.8 °F 86% 29.85 in 10.0 mi NE 15.0 mph 20.7 mph N/A Snow Light Snow
12:33 AM 19.4 °F 5.0 °F 15.8 °F 86% 29.85 in 10.0 mi NNE 16.1 mph 19.6 mph N/A Snow Light Snow
12:54 AM 19.4 °F 5.5 °F 15.8 °F 86% 29.85 in 10.0 mi NNE 15.0 mph 18.4 mph N/A Snow Light Snow
1:13 AM 19.4 °F 6.0 °F 15.8 °F 86% 29.85 in 10.0 mi NNE 13.8 mph - N/A Snow Light Snow
1:33 AM 19.4 °F 4.1 °F 15.8 °F 86% 29.85 in 10.0 mi NE 18.4 mph 23.0 mph N/A   Overcast
1:54 AM 19.4 °F 5.5 °F 15.8 °F 86% 29.86 in 10.0 mi NE 15.0 mph - N/A Snow Light Snow
2:13 AM 19.4 °F 6.0 °F 14.0 °F 80% 29.87 in 10.0 mi NE 13.8 mph 21.9 mph N/A Snow Light Snow
2:33 AM 19.4 °F 5.5 °F 14.0 °F 80% 29.87 in 10.0 mi NE 15.0 mph 19.6 mph N/A Snow Light Snow
2:54 AM 19.4 °F 5.0 °F 14.0 °F 80% 29.87 in 10.0 mi NNE 16.1 mph - N/A   Overcast
3:13 AM 19.4 °F 5.0 °F 14.0 °F 80% 29.87 in 10.0 mi NE 16.1 mph 23.0 mph N/A   Overcast
3:33 AM 19.4 °F 5.0 °F 14.0 °F 80% 29.86 in 10.0 mi NE 16.1 mph 20.7 mph N/A Snow Light Snow
3:53 AM 19.4 °F 5.5 °F 14.0 °F 80% 29.86 in 7.0 mi NNE 15.0 mph - N/A Snow Light Snow
4:13 AM 19.4 °F 4.5 °F 14.0 °F 80% 29.86 in 10.0 mi NE 17.3 mph - N/A Snow Light Snow
4:33 AM 17.6 °F 3.7 °F 14.0 °F 86% 29.87 in 10.0 mi NE 13.8 mph - N/A Snow Light Snow
4:54 AM 17.6 °F 4.3 °F 14.0 °F 86% 29.87 in 10.0 mi NE 12.7 mph - N/A   Overcast
5:13 AM 17.6 °F 3.7 °F 14.0 °F 86% 29.88 in 10.0 mi NE 13.8 mph 18.4 mph N/A Snow Light Snow
5:33 AM 17.6 °F 4.3 °F 14.0 °F 86% 29.87 in 10.0 mi NE 12.7 mph - N/A Snow Light Snow
5:53 AM 17.6 °F 4.3 °F 14.0 °F 86% 29.88 in 10.0 mi NNE 12.7 mph - N/A Snow Light Snow
6:13 AM 17.6 °F 3.2 °F 14.0 °F 86% 29.88 in 10.0 mi NE 15.0 mph - N/A Snow Light Snow
6:33 AM 17.6 °F 4.3 °F 14.0 °F 86% 29.88 in 10.0 mi NNE 12.7 mph - N/A Snow Light Snow
6:53 AM 17.6 °F 3.7 °F 14.0 °F 86% 29.88 in 10.0 mi NE 13.8 mph - N/A Snow Light Snow
7:13 AM 17.6 °F 3.7 °F 14.0 °F 86% 29.89 in 10.0 mi NNE 13.8 mph - N/A   Overcast
7:33 AM 17.6 °F 4.3 °F 14.0 °F 86% 29.90 in 10.0 mi NE 12.7 mph - N/A Snow Light Snow
7:53 AM 17.6 °F 4.3 °F 14.0 °F 86% 29.90 in 10.0 mi NE 12.7 mph - N/A   Overcast
8:13 AM 17.6 °F 3.7 °F 14.0 °F 86% 29.91 in 10.0 mi NE 13.8 mph - N/A Snow Light Snow
8:33 AM 19.4 °F 7.2 °F 15.8 °F 86% 29.91 in 7.0 mi NNE 11.5 mph 18.4 mph N/A Snow Light Snow
8:53 AM 19.4 °F 6.6 °F 14.0 °F 80% 29.92 in 7.0 mi NE 12.7 mph - N/A Snow Light Snow
9:13 AM 19.4 °F 7.2 °F 15.8 °F 86% 29.92 in 7.0 mi NE 11.5 mph - N/A Snow Light Snow
9:33 AM 19.4 °F 7.2 °F 15.8 °F 86% 29.92 in 5.0 mi NNE 11.5 mph - N/A Snow Light Snow
9:53 AM 19.4 °F 7.2 °F 15.8 °F 86% 29.92 in 4.0 mi NE 11.5 mph - N/A Snow Light Snow
10:14 AM 19.4 °F 7.2 °F 15.8 °F 86% 29.93 in 3.0 mi NE 11.5 mph - N/A Snow Light Snow
10:33 AM 19.4 °F 7.2 °F 15.8 °F 86% 29.93 in 3.0 mi NE 11.5 mph - N/A Snow Light Snow
10:53 AM 19.4 °F 7.2 °F 15.8 °F 86% 29.93 in 3.0 mi NE 11.5 mph 19.6 mph N/A Snow Light Snow
11:14 AM 19.4 °F 7.2 °F 15.8 °F 86% 29.94 in 3.0 mi NE 11.5 mph 16.1 mph N/A Snow Light Snow
11:33 AM 19.4 °F 7.9 °F 15.8 °F 86% 29.93 in 4.0 mi NE 10.4 mph - N/A Snow Light Snow
11:53 AM 19.4 °F 7.9 °F 15.8 °F 86% 29.93 in 7.0 mi NE 10.4 mph - N/A   Overcast
12:13 PM 21.2 °F 9.5 °F 15.8 °F 80% 29.93 in 10.0 mi NE 11.5 mph - N/A   Overcast
12:33 PM 21.2 °F 10.9 °F 15.8 °F 80% 29.92 in 10.0 mi NNE 9.2 mph - N/A Snow Light Snow
12:53 PM 21.2 °F 10.9 °F 15.8 °F 80% 29.92 in 10.0 mi NNE 9.2 mph - N/A Snow Light Snow
1:13 PM 21.2 °F 11.7 °F 15.8 °F 80% 29.92 in 10.0 mi NE 8.1 mph - N/A Snow Light Snow
1:34 PM 21.2 °F 10.1 °F 15.8 °F 80% 29.92 in 10.0 mi NE 10.4 mph - N/A   Overcast
1:53 PM 21.2 °F 9.5 °F 15.8 °F 80% 29.92 in 7.0 mi ENE 11.5 mph - N/A Snow Light Snow
2:10 PM 21.2 °F 8.3 °F 15.8 °F 80% 29.93 in 7.0 mi NE 13.8 mph - N/A Snow Light Snow
2:21 PM 21.2 °F 10.9 °F 15.8 °F 80% 29.93 in 10.0 mi ENE 9.2 mph - N/A   Overcast
2:41 PM 21.2 °F 10.1 °F 15.8 °F 80% 29.93 in 7.0 mi ENE 10.4 mph - N/A   Overcast
3:01 PM 19.4 °F 9.5 °F 15.8 °F 86% 29.94 in 10.0 mi NE 8.1 mph - N/A   Overcast
3:41 PM 21.2 °F 11.7 °F 15.8 °F 80% 29.95 in 10.0 mi NE 8.1 mph - N/A Snow Light Snow
3:53 PM 19.4 °F 9.5 °F 15.8 °F 86% 29.95 in 10.0 mi NE 8.1 mph - N/A Snow Light Snow
4:13 PM 19.4 °F 9.5 °F 15.8 °F 86% 29.96 in 10.0 mi NE 8.1 mph - N/A Snow Light Snow
4:33 PM 19.4 °F 8.6 °F 15.8 °F 86% 29.96 in 10.0 mi ENE 9.2 mph - N/A   Overcast
4:53 PM 19.4 °F 7.2 °F 15.8 °F 86% 29.97 in 10.0 mi NE 11.5 mph - N/A Snow Light Snow
5:13 PM 19.4 °F 9.5 °F 15.8 °F 86% 29.97 in 10.0 mi ENE 8.1 mph - N/A Snow Light Snow
5:33 PM 19.4 °F 7.2 °F 15.8 °F 86% 29.97 in 10.0 mi ENE 11.5 mph - N/A   Overcast
5:54 PM 19.4 °F 8.6 °F 15.8 °F 86% 29.97 in 10.0 mi ENE 9.2 mph - N/A Snow Light Snow
6:13 PM 19.4 °F 10.4 °F 15.8 °F 86% 29.97 in 10.0 mi ENE 6.9 mph - N/A Snow Light Snow
6:33 PM 19.4 °F 8.6 °F 15.8 °F 86% 29.97 in 10.0 mi ENE 9.2 mph - N/A   Overcast
6:54 PM 19.4 °F 10.4 °F 15.8 °F 86% 29.98 in 10.0 mi ENE 6.9 mph 17.3 mph N/A   Overcast
7:13 PM 19.4 °F 8.6 °F 15.8 °F 86% 29.99 in 10.0 mi ENE 9.2 mph - N/A   Overcast
7:33 PM 19.4 °F 11.5 °F 15.8 °F 86% 30.00 in 10.0 mi ENE 5.8 mph - N/A   Overcast
7:53 PM 19.4 °F 10.4 °F 14.0 °F 80% 30.00 in 10.0 mi ENE 6.9 mph - N/A Snow Light Snow
8:13 PM 19.4 °F 9.5 °F 15.8 °F 86% 30.01 in 10.0 mi ENE 8.1 mph - N/A Snow Light Snow
8:33 PM 19.4 °F 9.5 °F 14.0 °F 80% 30.01 in 10.0 mi East 8.1 mph - N/A Snow Light Snow
8:53 PM 19.4 °F 10.4 °F 14.0 °F 80% 30.01 in 10.0 mi East 6.9 mph - N/A Snow Light Snow
9:14 PM 17.6 °F 5.0 °F 12.2 °F 79% 30.02 in 10.0 mi ENE 11.5 mph - N/A Snow Light Snow
9:33 PM 17.6 °F 7.3 °F 12.2 °F 79% 30.02 in 10.0 mi East 8.1 mph - N/A   Overcast
9:54 PM 17.6 °F 7.3 °F 12.2 °F 79% 30.02 in 10.0 mi East 8.1 mph - N/A Snow Light Snow
10:14 PM 17.6 °F 7.3 °F 12.2 °F 79% 30.02 in 10.0 mi East 8.1 mph - N/A Snow Light Snow
10:20 PM 17.6 °F 6.4 °F 12.2 °F 79% 30.01 in 10.0 mi East 9.2 mph - N/A Snow Light Snow
10:54 PM 17.6 °F 8.2 °F 12.2 °F 79% 30.00 in 7.0 mi ENE 6.9 mph - N/A Snow Light Snow
11:13 PM 15.8 °F 5.1 °F 12.2 °F 86% 30.00 in 10.0 mi ENE 8.1 mph - N/A Snow Light Snow
11:33 PM 15.8 °F 3.4 °F 12.2 °F 86% 30.00 in 10.0 mi ENE 10.4 mph - N/A Snow Light Snow
11:54 PM 15.8 °F 4.2 °F 10.4 °F 79% 30.01 in 10.0 mi ENE 9.2 mph - N/A   Overcast